sensor_id;sensor_type;location;lat;lon;timestamp;temperature;humidity
11304;DHT22;5707;49.588;12.148;2023-03-19T00:01:06;2.10;99.90
11304;DHT22;5707;49.588;12.148;2023-03-19T00:03:33;2.10;99.90
11304;DHT22;5707;49.588;12.148;2023-03-19T00:05:58;2.10;99.90
11304;DHT22;5707;49.588;12.148;2023-03-19T00:08:24;2.10;99.90
11304;DHT22;5707;49.588;12.148;2023-03-19T00:10:50;2.20;99.90
11304;DHT22;5707;49.588;12.148;2023-03-19T00:13:16;2.20;99.90
11304;DHT22;5707;49.588;12.148;2023-03-19T00:15:41;2.30;99.90
11304;DHT22;5707;49.588;12.148;2023-03-19T00:18:07;2.30;99.90
11304;DHT22;5707;49.588;12.148;2023-03-19T00:20:33;2.30;99.90
11304;DHT22;5707;49.588;12.148;2023-03-19T00:22:59;2.30;99.90
11304;DHT22;5707;49.588;12.148;2023-03-19T00:25:25;2.30;99.90
11304;DHT22;5707;49.588;12.148;2023-03-19T00:27:50;2.30;99.90
11304;DHT22;5707;49.588;12.148;2023-03-19T00:30:18;2.30;99.90
11304;DHT22;5707;49.588;12.148;2023-03-19T00:32:44;2.40;99.90
11304;DHT22;5707;49.588;12.148;2023-03-19T00:35:10;2.30;99.90
11304;DHT22;5707;49.588;12.148;2023-03-19T00:37:36;2.30;99.90
11304;DHT22;5707;49.588;12.148;2023-03-19T00:40:02;2.20;99.90
11304;DHT22;5707;49.588;12.148;2023-03-19T00:42:29;2.20;99.90
11304;DHT22;5707;49.588;12.148;2023-03-19T00:44:55;2.10;99.90
11304;DHT22;5707;49.588;12.148;2023-03-19T00:47:21;2.10;99.90
11304;DHT22;5707;49.588;12.148;2023-03-19T00:49:47;2.10;99.90
11304;DHT22;5707;49.588;12.148;2023-03-19T00:52:13;2.10;99.90
11304;DHT22;5707;49.588;12.148;2023-03-19T00:54:39;2.00;99.90
11304;DHT22;5707;49.588;12.148;2023-03-19T00:57:04;2.10;99.90
11304;DHT22;5707;49.588;12.148;2023-03-19T00:59:30;2.10;99.90
11304;DHT22;5707;49.588;12.148;2023-03-19T01:01:56;2.00;99.90
11304;DHT22;5707;49.588;12.148;2023-03-19T01:04:21;2.00;99.90
11304;DHT22;5707;49.588;12.148;2023-03-19T01:06:47;1.90;99.90
11304;DHT22;5707;49.588;12.148;2023-03-19T01:09:13;1.90;99.90
11304;DHT22;5707;49.588;12.148;2023-03-19T01:11:39;1.80;99.90
11304;DHT22;5707;49.588;12.148;2023-03-19T01:14:05;1.80;99.90
11304;DHT22;5707;49.588;12.148;2023-03-19T01:16:31;1.80;99.90
11304;DHT22;5707;49.588;12.148;2023-03-19T01:18:58;1.70;99.90
11304;DHT22;5707;49.588;12.148;2023-03-19T01:21:24;1.70;99.90
11304;DHT22;5707;49.588;12.148;2023-03-19T01:23:50;1.70;99.90
11304;DHT22;5707;49.588;12.148;2023-03-19T01:26:18;1.70;99.90
11304;DHT22;5707;49.588;12.148;2023-03-19T01:28:44;1.70;99.90
11304;DHT22;5707;49.588;12.148;2023-03-19T01:31:10;1.70;99.90
11304;DHT22;5707;49.588;12.148;2023-03-19T01:33:36;1.60;99.90
11304;DHT22;5707;49.588;12.148;2023-03-19T01:36:02;1.50;99.90
11304;DHT22;5707;49.588;12.148;2023-03-19T01:38:29;1.50;99.90
11304;DHT22;5707;49.588;12.148;2023-03-19T01:40:55;1.50;99.90
11304;DHT22;5707;49.588;12.148;2023-03-19T01:43:27;1.50;99.90
11304;DHT22;5707;49.588;12.148;2023-03-19T01:46:12;1.50;99.90
11304;DHT22;5707;49.588;12.148;2023-03-19T01:48:47;1.50;99.90
11304;DHT22;5707;49.588;12.148;2023-03-19T01:51:17;1.50;99.90
11304;DHT22;5707;49.588;12.148;2023-03-19T01:53:47;1.50;99.90
11304;DHT22;5707;49.588;12.148;2023-03-19T01:56:20;1.50;99.90
11304;DHT22;5707;49.588;12.148;2023-03-19T01:58:48;1.50;99.90
11304;DHT22;5707;49.588;12.148;2023-03-19T02:01:15;1.50;99.90
11304;DHT22;5707;49.588;12.148;2023-03-19T02:03:41;1.40;99.90
11304;DHT22;5707;49.588;12.148;2023-03-19T02:06:09;1.40;99.90
11304;DHT22;5707;49.588;12.148;2023-03-19T02:08:37;1.30;99.90
11304;DHT22;5707;49.588;12.148;2023-03-19T02:11:04;1.30;99.90
11304;DHT22;5707;49.588;12.148;2023-03-19T02:13:29;1.20;99.90
11304;DHT22;5707;49.588;12.148;2023-03-19T02:15:55;1.20;99.90
11304;DHT22;5707;49.588;12.148;2023-03-19T02:18:23;1.20;99.90
11304;DHT22;5707;49.588;12.148;2023-03-19T02:21:10;1.30;99.90
11304;DHT22;5707;49.588;12.148;2023-03-19T02:24:00;1.30;99.90
11304;DHT22;5707;49.588;12.148;2023-03-19T02:26:28;1.30;99.90
11304;DHT22;5707;49.588;12.148;2023-03-19T02:28:55;1.30;99.90
11304;DHT22;5707;49.588;12.148;2023-03-19T02:31:21;1.30;99.90
11304;DHT22;5707;49.588;12.148;2023-03-19T02:34:03;1.30;99.90
11304;DHT22;5707;49.588;12.148;2023-03-19T02:36:34;1.30;99.90
11304;DHT22;5707;49.588;12.148;2023-03-19T02:39:04;1.40;99.90
11304;DHT22;5707;49.588;12.148;2023-03-19T02:41:30;1.40;99.90
11304;DHT22;5707;49.588;12.148;2023-03-19T02:43:59;1.50;99.90
11304;DHT22;5707;49.588;12.148;2023-03-19T02:46:26;1.60;99.90
11304;DHT22;5707;49.588;12.148;2023-03-19T02:48:51;1.70;99.90
11304;DHT22;5707;49.588;12.148;2023-03-19T02:51:17;1.70;99.90
11304;DHT22;5707;49.588;12.148;2023-03-19T02:53:44;1.80;99.90
11304;DHT22;5707;49.588;12.148;2023-03-19T02:56:10;1.80;99.90
11304;DHT22;5707;49.588;12.148;2023-03-19T02:58:36;1.90;99.90
11304;DHT22;5707;49.588;12.148;2023-03-19T03:01:01;2.00;99.90
11304;DHT22;5707;49.588;12.148;2023-03-19T03:03:27;2.00;99.90
11304;DHT22;5707;49.588;12.148;2023-03-19T03:05:53;1.90;99.90
11304;DHT22;5707;49.588;12.148;2023-03-19T03:08:18;2.00;99.90
11304;DHT22;5707;49.588;12.148;2023-03-19T03:10:44;2.00;99.90
11304;DHT22;5707;49.588;12.148;2023-03-19T03:13:10;2.00;99.90
11304;DHT22;5707;49.588;12.148;2023-03-19T03:15:36;2.00;99.90
11304;DHT22;5707;49.588;12.148;2023-03-19T03:18:01;2.00;99.90
11304;DHT22;5707;49.588;12.148;2023-03-19T03:20:27;2.00;99.90
11304;DHT22;5707;49.588;12.148;2023-03-19T03:22:53;2.00;99.90
11304;DHT22;5707;49.588;12.148;2023-03-19T03:25:19;2.10;99.90
11304;DHT22;5707;49.588;12.148;2023-03-19T03:27:45;2.00;99.90
11304;DHT22;5707;49.588;12.148;2023-03-19T03:30:11;2.00;99.90
11304;DHT22;5707;49.588;12.148;2023-03-19T03:32:38;2.10;99.90
11304;DHT22;5707;49.588;12.148;2023-03-19T03:35:05;2.10;99.90
11304;DHT22;5707;49.588;12.148;2023-03-19T03:37:31;2.10;99.90
11304;DHT22;5707;49.588;12.148;2023-03-19T03:39:57;2.10;99.90
11304;DHT22;5707;49.588;12.148;2023-03-19T03:42:22;2.00;99.90
11304;DHT22;5707;49.588;12.148;2023-03-19T03:44:48;1.90;99.90
11304;DHT22;5707;49.588;12.148;2023-03-19T03:47:14;1.90;99.90
11304;DHT22;5707;49.588;12.148;2023-03-19T03:49:40;2.00;99.90
11304;DHT22;5707;49.588;12.148;2023-03-19T03:52:06;2.00;99.90
11304;DHT22;5707;49.588;12.148;2023-03-19T03:54:33;2.00;99.90
11304;DHT22;5707;49.588;12.148;2023-03-19T03:56:59;2.00;99.90
11304;DHT22;5707;49.588;12.148;2023-03-19T03:59:25;2.00;99.90
11304;DHT22;5707;49.588;12.148;2023-03-19T04:01:51;1.90;99.90
11304;DHT22;5707;49.588;12.148;2023-03-19T04:04:16;1.90;99.90
11304;DHT22;5707;49.588;12.148;2023-03-19T04:06:43;1.80;99.90
11304;DHT22;5707;49.588;12.148;2023-03-19T04:09:08;1.90;99.90
11304;DHT22;5707;49.588;12.148;2023-03-19T04:11:34;1.90;99.90
11304;DHT22;5707;49.588;12.148;2023-03-19T04:14:00;2.00;99.90
11304;DHT22;5707;49.588;12.148;2023-03-19T04:16:27;2.10;99.90
11304;DHT22;5707;49.588;12.148;2023-03-19T04:18:53;2.10;99.90
11304;DHT22;5707;49.588;12.148;2023-03-19T04:21:19;2.10;99.90
11304;DHT22;5707;49.588;12.148;2023-03-19T04:23:45;2.20;99.90
11304;DHT22;5707;49.588;12.148;2023-03-19T04:26:11;2.10;99.90
11304;DHT22;5707;49.588;12.148;2023-03-19T04:28:37;2.10;99.90
11304;DHT22;5707;49.588;12.148;2023-03-19T04:31:05;2.20;99.90
11304;DHT22;5707;49.588;12.148;2023-03-19T04:33:31;2.20;99.90
11304;DHT22;5707;49.588;12.148;2023-03-19T04:35:57;2.30;99.90
11304;DHT22;5707;49.588;12.148;2023-03-19T04:38:23;2.20;99.90
11304;DHT22;5707;49.588;12.148;2023-03-19T04:40:50;2.20;99.90
11304;DHT22;5707;49.588;12.148;2023-03-19T04:43:17;2.20;99.90
11304;DHT22;5707;49.588;12.148;2023-03-19T04:45:42;2.10;99.90
11304;DHT22;5707;49.588;12.148;2023-03-19T04:48:08;2.10;99.90
11304;DHT22;5707;49.588;12.148;2023-03-19T04:50:33;2.00;99.90
11304;DHT22;5707;49.588;12.148;2023-03-19T04:52:59;2.00;99.90
11304;DHT22;5707;49.588;12.148;2023-03-19T04:55:25;2.00;99.90
11304;DHT22;5707;49.588;12.148;2023-03-19T04:57:51;2.00;99.90
11304;DHT22;5707;49.588;12.148;2023-03-19T05:00:17;1.90;99.90
11304;DHT22;5707;49.588;12.148;2023-03-19T05:02:43;1.90;99.90
11304;DHT22;5707;49.588;12.148;2023-03-19T05:05:09;1.80;99.90
11304;DHT22;5707;49.588;12.148;2023-03-19T05:07:39;1.80;99.90
11304;DHT22;5707;49.588;12.148;2023-03-19T05:10:05;1.80;99.90
11304;DHT22;5707;49.588;12.148;2023-03-19T05:12:31;1.70;99.90
11304;DHT22;5707;49.588;12.148;2023-03-19T05:14:56;1.80;99.90
11304;DHT22;5707;49.588;12.148;2023-03-19T05:17:22;1.80;99.90
11304;DHT22;5707;49.588;12.148;2023-03-19T05:19:48;1.70;99.90
11304;DHT22;5707;49.588;12.148;2023-03-19T05:22:13;1.60;99.90
11304;DHT22;5707;49.588;12.148;2023-03-19T05:24:39;1.60;99.90
11304;DHT22;5707;49.588;12.148;2023-03-19T05:27:05;1.70;99.90
11304;DHT22;5707;49.588;12.148;2023-03-19T05:29:31;1.70;99.90
11304;DHT22;5707;49.588;12.148;2023-03-19T05:31:57;1.70;99.90
11304;DHT22;5707;49.588;12.148;2023-03-19T05:34:24;1.80;99.90
11304;DHT22;5707;49.588;12.148;2023-03-19T05:36:49;1.80;99.90
11304;DHT22;5707;49.588;12.148;2023-03-19T05:39:16;1.90;99.90
11304;DHT22;5707;49.588;12.148;2023-03-19T05:41:41;2.00;99.90
11304;DHT22;5707;49.588;12.148;2023-03-19T05:44:07;2.10;99.90
11304;DHT22;5707;49.588;12.148;2023-03-19T05:46:33;2.20;99.90
11304;DHT22;5707;49.588;12.148;2023-03-19T05:48:59;2.30;99.90
11304;DHT22;5707;49.588;12.148;2023-03-19T05:51:24;2.50;99.90
11304;DHT22;5707;49.588;12.148;2023-03-19T05:53:50;2.60;99.90
11304;DHT22;5707;49.588;12.148;2023-03-19T05:56:15;2.80;99.90
11304;DHT22;5707;49.588;12.148;2023-03-19T05:58:41;2.90;99.90
11304;DHT22;5707;49.588;12.148;2023-03-19T06:01:07;3.00;99.90
11304;DHT22;5707;49.588;12.148;2023-03-19T06:03:33;3.10;99.90
11304;DHT22;5707;49.588;12.148;2023-03-19T06:05:58;3.20;99.90
11304;DHT22;5707;49.588;12.148;2023-03-19T06:08:24;3.20;99.90
11304;DHT22;5707;49.588;12.148;2023-03-19T06:10:49;3.30;99.90
11304;DHT22;5707;49.588;12.148;2023-03-19T06:13:16;3.40;99.90
11304;DHT22;5707;49.588;12.148;2023-03-19T06:15:42;3.50;99.90
11304;DHT22;5707;49.588;12.148;2023-03-19T06:18:08;3.50;99.90
11304;DHT22;5707;49.588;12.148;2023-03-19T06:20:33;3.60;99.90
11304;DHT22;5707;49.588;12.148;2023-03-19T06:22:59;3.70;99.90
11304;DHT22;5707;49.588;12.148;2023-03-19T06:25:24;3.80;99.90
11304;DHT22;5707;49.588;12.148;2023-03-19T06:27:50;3.80;99.90
11304;DHT22;5707;49.588;12.148;2023-03-19T06:30:16;3.90;99.90
11304;DHT22;5707;49.588;12.148;2023-03-19T06:32:41;3.90;99.90
11304;DHT22;5707;49.588;12.148;2023-03-19T06:35:07;3.90;99.90
11304;DHT22;5707;49.588;12.148;2023-03-19T06:37:33;4.00;99.90
11304;DHT22;5707;49.588;12.148;2023-03-19T06:39:59;4.10;99.90
11304;DHT22;5707;49.588;12.148;2023-03-19T06:42:25;4.20;99.90
11304;DHT22;5707;49.588;12.148;2023-03-19T06:44:51;4.30;99.90
11304;DHT22;5707;49.588;12.148;2023-03-19T06:47:17;4.30;99.90
11304;DHT22;5707;49.588;12.148;2023-03-19T06:49:42;4.40;99.90
11304;DHT22;5707;49.588;12.148;2023-03-19T06:52:08;4.50;99.90
11304;DHT22;5707;49.588;12.148;2023-03-19T06:54:34;4.60;99.90
11304;DHT22;5707;49.588;12.148;2023-03-19T06:56:59;4.70;99.90
11304;DHT22;5707;49.588;12.148;2023-03-19T06:59:25;4.70;99.90
11304;DHT22;5707;49.588;12.148;2023-03-19T07:01:51;4.80;99.90
11304;DHT22;5707;49.588;12.148;2023-03-19T07:04:17;4.90;99.90
11304;DHT22;5707;49.588;12.148;2023-03-19T07:06:43;5.00;99.90
11304;DHT22;5707;49.588;12.148;2023-03-19T07:09:08;5.10;99.90
11304;DHT22;5707;49.588;12.148;2023-03-19T07:11:34;5.20;99.90
11304;DHT22;5707;49.588;12.148;2023-03-19T07:14:00;5.20;99.90
11304;DHT22;5707;49.588;12.148;2023-03-19T07:16:25;5.20;99.90
11304;DHT22;5707;49.588;12.148;2023-03-19T07:18:51;5.30;99.90
11304;DHT22;5707;49.588;12.148;2023-03-19T07:21:16;5.40;99.90
11304;DHT22;5707;49.588;12.148;2023-03-19T07:23:42;5.60;99.90
11304;DHT22;5707;49.588;12.148;2023-03-19T07:26:08;5.80;99.90
11304;DHT22;5707;49.588;12.148;2023-03-19T07:28:33;5.80;99.90
11304;DHT22;5707;49.588;12.148;2023-03-19T07:30:59;6.00;99.90
11304;DHT22;5707;49.588;12.148;2023-03-19T07:33:25;6.00;99.90
11304;DHT22;5707;49.588;12.148;2023-03-19T07:35:50;6.10;99.90
11304;DHT22;5707;49.588;12.148;2023-03-19T07:38:16;6.20;99.90
11304;DHT22;5707;49.588;12.148;2023-03-19T07:40:41;6.40;99.90
11304;DHT22;5707;49.588;12.148;2023-03-19T07:43:07;6.60;99.90
11304;DHT22;5707;49.588;12.148;2023-03-19T07:45:33;6.80;99.90
11304;DHT22;5707;49.588;12.148;2023-03-19T07:47:58;7.10;99.90
11304;DHT22;5707;49.588;12.148;2023-03-19T07:50:30;7.30;99.90
11304;DHT22;5707;49.588;12.148;2023-03-19T07:52:56;7.60;99.90
11304;DHT22;5707;49.588;12.148;2023-03-19T07:55:21;7.80;99.90
11304;DHT22;5707;49.588;12.148;2023-03-19T07:57:47;8.10;99.90
11304;DHT22;5707;49.588;12.148;2023-03-19T08:00:13;8.30;99.90
11304;DHT22;5707;49.588;12.148;2023-03-19T08:02:39;8.60;99.90
11304;DHT22;5707;49.588;12.148;2023-03-19T08:05:05;8.80;99.90
11304;DHT22;5707;49.588;12.148;2023-03-19T08:07:31;8.90;99.90
11304;DHT22;5707;49.588;12.148;2023-03-19T08:09:57;8.90;99.90
11304;DHT22;5707;49.588;12.148;2023-03-19T08:12:23;9.10;99.90
11304;DHT22;5707;49.588;12.148;2023-03-19T08:14:49;9.30;99.90
11304;DHT22;5707;49.588;12.148;2023-03-19T08:17:15;9.40;99.90
11304;DHT22;5707;49.588;12.148;2023-03-19T08:19:41;9.50;99.90
11304;DHT22;5707;49.588;12.148;2023-03-19T08:22:08;9.50;99.90
11304;DHT22;5707;49.588;12.148;2023-03-19T08:24:33;9.60;99.90
11304;DHT22;5707;49.588;12.148;2023-03-19T08:26:59;9.60;99.90
11304;DHT22;5707;49.588;12.148;2023-03-19T08:29:25;9.60;99.90
11304;DHT22;5707;49.588;12.148;2023-03-19T08:31:52;9.60;99.90
11304;DHT22;5707;49.588;12.148;2023-03-19T08:34:18;9.60;99.90
11304;DHT22;5707;49.588;12.148;2023-03-19T08:36:44;9.60;99.90
11304;DHT22;5707;49.588;12.148;2023-03-19T08:39:09;9.60;99.90
11304;DHT22;5707;49.588;12.148;2023-03-19T08:41:35;9.70;99.90
11304;DHT22;5707;49.588;12.148;2023-03-19T08:44:01;9.80;99.90
11304;DHT22;5707;49.588;12.148;2023-03-19T08:46:26;9.80;99.90
11304;DHT22;5707;49.588;12.148;2023-03-19T08:48:53;9.90;99.90
11304;DHT22;5707;49.588;12.148;2023-03-19T08:51:19;10.10;99.90
11304;DHT22;5707;49.588;12.148;2023-03-19T08:53:45;10.10;99.90
11304;DHT22;5707;49.588;12.148;2023-03-19T08:56:11;10.20;99.90
11304;DHT22;5707;49.588;12.148;2023-03-19T08:58:36;10.20;99.90
11304;DHT22;5707;49.588;12.148;2023-03-19T09:01:04;10.40;99.90
11304;DHT22;5707;49.588;12.148;2023-03-19T09:03:30;10.50;99.90
11304;DHT22;5707;49.588;12.148;2023-03-19T09:06:00;10.70;99.90
11304;DHT22;5707;49.588;12.148;2023-03-19T09:08:27;10.90;99.90
11304;DHT22;5707;49.588;12.148;2023-03-19T09:10:53;10.90;99.90
11304;DHT22;5707;49.588;12.148;2023-03-19T09:13:19;10.80;99.90
11304;DHT22;5707;49.588;12.148;2023-03-19T09:15:44;10.70;99.90
11304;DHT22;5707;49.588;12.148;2023-03-19T09:18:10;10.80;99.90
11304;DHT22;5707;49.588;12.148;2023-03-19T09:20:36;10.80;99.90
11304;DHT22;5707;49.588;12.148;2023-03-19T09:23:01;10.90;99.90
11304;DHT22;5707;49.588;12.148;2023-03-19T09:25:27;11.00;99.90
11304;DHT22;5707;49.588;12.148;2023-03-19T09:27:52;11.20;99.90
11304;DHT22;5707;49.588;12.148;2023-03-19T09:30:18;11.40;99.90
11304;DHT22;5707;49.588;12.148;2023-03-19T09:32:44;11.80;99.90
11304;DHT22;5707;49.588;12.148;2023-03-19T09:35:09;12.00;99.90
11304;DHT22;5707;49.588;12.148;2023-03-19T09:37:35;12.40;99.90
11304;DHT22;5707;49.588;12.148;2023-03-19T09:40:00;12.60;99.90
11304;DHT22;5707;49.588;12.148;2023-03-19T09:45:30;12.80;99.90
11304;DHT22;5707;49.588;12.148;2023-03-19T09:48:04;13.00;99.90
11304;DHT22;5707;49.588;12.148;2023-03-19T09:50:31;13.30;99.90
11304;DHT22;5707;49.588;12.148;2023-03-19T09:53:11;13.30;99.90
11304;DHT22;5707;49.588;12.148;2023-03-19T09:55:46;13.50;99.90
11304;DHT22;5707;49.588;12.148;2023-03-19T09:58:16;13.80;99.90
11304;DHT22;5707;49.588;12.148;2023-03-19T10:00:43;14.00;99.90
11304;DHT22;5707;49.588;12.148;2023-03-19T10:03:22;14.20;99.90
11304;DHT22;5707;49.588;12.148;2023-03-19T10:06:16;14.30;99.90
11304;DHT22;5707;49.588;12.148;2023-03-19T10:17:02;14.30;99.90
11304;DHT22;5707;49.588;12.148;2023-03-19T10:19:46;14.00;99.90
11304;DHT22;5707;49.588;12.148;2023-03-19T10:22:26;13.80;99.90
11304;DHT22;5707;49.588;12.148;2023-03-19T10:24:55;13.80;99.90
11304;DHT22;5707;49.588;12.148;2023-03-19T10:27:24;13.60;99.90
11304;DHT22;5707;49.588;12.148;2023-03-19T10:29:51;13.50;99.90
11304;DHT22;5707;49.588;12.148;2023-03-19T10:32:37;13.50;99.90
11304;DHT22;5707;49.588;12.148;2023-03-19T10:35:15;13.30;99.90
11304;DHT22;5707;49.588;12.148;2023-03-19T10:37:42;13.40;99.90
11304;DHT22;5707;49.588;12.148;2023-03-19T10:40:19;13.60;99.90
11304;DHT22;5707;49.588;12.148;2023-03-19T10:43:15;13.80;99.90
11304;DHT22;5707;49.588;12.148;2023-03-19T10:45:42;13.90;99.90
11304;DHT22;5707;49.588;12.148;2023-03-19T10:48:16;14.00;99.90
11304;DHT22;5707;49.588;12.148;2023-03-19T10:50:57;13.90;99.90
11304;DHT22;5707;49.588;12.148;2023-03-19T10:53:35;13.70;99.90
11304;DHT22;5707;49.588;12.148;2023-03-19T10:56:04;13.60;99.90
11304;DHT22;5707;49.588;12.148;2023-03-19T10:58:33;13.50;99.90
11304;DHT22;5707;49.588;12.148;2023-03-19T11:01:08;13.50;99.90
11304;DHT22;5707;49.588;12.148;2023-03-19T11:03:37;13.50;99.90
11304;DHT22;5707;49.588;12.148;2023-03-19T11:06:25;13.70;99.90
11304;DHT22;5707;49.588;12.148;2023-03-19T11:08:57;13.90;99.90
11304;DHT22;5707;49.588;12.148;2023-03-19T11:11:35;13.90;99.90
11304;DHT22;5707;49.588;12.148;2023-03-19T11:14:18;13.90;99.90
11304;DHT22;5707;49.588;12.148;2023-03-19T11:17:13;13.80;99.90
11304;DHT22;5707;49.588;12.148;2023-03-19T11:19:42;13.70;99.90
11304;DHT22;5707;49.588;12.148;2023-03-19T11:22:30;13.50;99.90
11304;DHT22;5707;49.588;12.148;2023-03-19T11:25:12;13.40;99.90
11304;DHT22;5707;49.588;12.148;2023-03-19T11:27:38;13.40;99.90
11304;DHT22;5707;49.588;12.148;2023-03-19T11:30:13;13.50;99.90
11304;DHT22;5707;49.588;12.148;2023-03-19T11:35:27;13.60;99.90
11304;DHT22;5707;49.588;12.148;2023-03-19T11:37:56;13.70;99.90
11304;DHT22;5707;49.588;12.148;2023-03-19T11:40:46;13.80;99.90
11304;DHT22;5707;49.588;12.148;2023-03-19T11:46:18;14.10;99.90
11304;DHT22;5707;49.588;12.148;2023-03-19T11:51:49;14.40;99.90
11304;DHT22;5707;49.588;12.148;2023-03-19T11:57:16;14.30;99.90
11304;DHT22;5707;49.588;12.148;2023-03-19T12:06:06;13.70;99.90
11304;DHT22;5707;49.588;12.148;2023-03-19T12:08:41;13.30;99.90
11304;DHT22;5707;49.588;12.148;2023-03-19T12:11:29;13.00;99.90
11304;DHT22;5707;49.588;12.148;2023-03-19T12:14:24;12.80;99.90
11304;DHT22;5707;49.588;12.148;2023-03-19T12:17:01;12.40;99.90
11304;DHT22;5707;49.588;12.148;2023-03-19T12:19:44;12.10;99.90
11304;DHT22;5707;49.588;12.148;2023-03-19T12:22:39;12.00;99.90
11304;DHT22;5707;49.588;12.148;2023-03-19T12:27:55;11.70;99.90
11304;DHT22;5707;49.588;12.148;2023-03-19T12:30:41;11.70;99.90
11304;DHT22;5707;49.588;12.148;2023-03-19T12:36:25;12.00;99.90
11304;DHT22;5707;49.588;12.148;2023-03-19T12:39:08;12.20;99.90
11304;DHT22;5707;49.588;12.148;2023-03-19T12:41:39;12.40;99.90
11304;DHT22;5707;49.588;12.148;2023-03-19T12:44:14;12.50;99.90
11304;DHT22;5707;49.588;12.148;2023-03-19T12:46:50;12.90;99.90
11304;DHT22;5707;49.588;12.148;2023-03-19T12:49:40;13.30;99.90
11304;DHT22;5707;49.588;12.148;2023-03-19T12:52:16;13.60;99.90
11304;DHT22;5707;49.588;12.148;2023-03-19T12:54:46;13.90;99.90
11304;DHT22;5707;49.588;12.148;2023-03-19T12:57:24;14.20;99.90
11304;DHT22;5707;49.588;12.148;2023-03-19T13:08:22;15.00;99.90
11304;DHT22;5707;49.588;12.148;2023-03-19T13:10:52;15.30;99.90
11304;DHT22;5707;49.588;12.148;2023-03-19T13:18:57;15.90;99.90
11304;DHT22;5707;49.588;12.148;2023-03-19T13:21:33;15.80;99.90
11304;DHT22;5707;49.588;12.148;2023-03-19T13:24:20;16.00;99.90
11304;DHT22;5707;49.588;12.148;2023-03-19T13:26:48;16.20;99.90
11304;DHT22;5707;49.588;12.148;2023-03-19T13:29:23;15.90;99.90
11304;DHT22;5707;49.588;12.148;2023-03-19T13:31:49;15.50;99.90
11304;DHT22;5707;49.588;12.148;2023-03-19T13:36:43;15.40;99.90
11304;DHT22;5707;49.588;12.148;2023-03-19T13:39:18;15.90;99.90
11304;DHT22;5707;49.588;12.148;2023-03-19T13:41:53;16.40;99.90
11304;DHT22;5707;49.588;12.148;2023-03-19T13:46:48;16.20;99.90
11304;DHT22;5707;49.588;12.148;2023-03-19T13:49:33;16.10;99.90
11304;DHT22;5707;49.588;12.148;2023-03-19T13:54:37;16.10;99.90
11304;DHT22;5707;49.588;12.148;2023-03-19T13:57:15;16.10;99.90
11304;DHT22;5707;49.588;12.148;2023-03-19T13:59:45;16.30;99.90
11304;DHT22;5707;49.588;12.148;2023-03-19T14:07:19;17.20;99.90
11304;DHT22;5707;49.588;12.148;2023-03-19T14:09:48;16.80;99.90
11304;DHT22;5707;49.588;12.148;2023-03-19T14:17:15;16.70;99.90
11304;DHT22;5707;49.588;12.148;2023-03-19T14:19:43;16.60;99.90
11304;DHT22;5707;49.588;12.148;2023-03-19T14:22:21;16.40;99.90
11304;DHT22;5707;49.588;12.148;2023-03-19T14:27:47;15.90;99.90
11304;DHT22;5707;49.588;12.148;2023-03-19T14:30:34;15.60;99.90
11304;DHT22;5707;49.588;12.148;2023-03-19T14:33:06;15.30;99.90
11304;DHT22;5707;49.588;12.148;2023-03-19T14:35:40;15.10;99.90
11304;DHT22;5707;49.588;12.148;2023-03-19T14:38:16;15.10;99.90
11304;DHT22;5707;49.588;12.148;2023-03-19T14:40:47;15.20;99.90
11304;DHT22;5707;49.588;12.148;2023-03-19T14:46:21;15.10;99.90
11304;DHT22;5707;49.588;12.148;2023-03-19T14:49:14;14.80;99.90
11304;DHT22;5707;49.588;12.148;2023-03-19T14:52:20;14.80;99.90
11304;DHT22;5707;49.588;12.148;2023-03-19T14:54:54;14.90;99.90
11304;DHT22;5707;49.588;12.148;2023-03-19T14:57:27;15.10;99.90
11304;DHT22;5707;49.588;12.148;2023-03-19T14:59:53;15.50;99.90
11304;DHT22;5707;49.588;12.148;2023-03-19T15:04:58;15.70;99.90
11304;DHT22;5707;49.588;12.148;2023-03-19T15:07:36;16.00;99.90
11304;DHT22;5707;49.588;12.148;2023-03-19T15:10:05;16.10;99.90
11304;DHT22;5707;49.588;12.148;2023-03-19T15:17:58;15.70;99.90
11304;DHT22;5707;49.588;12.148;2023-03-19T15:20:24;15.60;99.90
11304;DHT22;5707;49.588;12.148;2023-03-19T15:22:55;15.40;99.90
11304;DHT22;5707;49.588;12.148;2023-03-19T15:25:21;15.40;99.90
11304;DHT22;5707;49.588;12.148;2023-03-19T15:28:04;15.20;99.90
11304;DHT22;5707;49.588;12.148;2023-03-19T15:30:29;15.00;99.90
11304;DHT22;5707;49.588;12.148;2023-03-19T15:32:56;15.00;99.90
11304;DHT22;5707;49.588;12.148;2023-03-19T15:35:25;14.80;99.90
11304;DHT22;5707;49.588;12.148;2023-03-19T15:37:55;14.50;99.90
11304;DHT22;5707;49.588;12.148;2023-03-19T15:40:26;14.40;99.90
11304;DHT22;5707;49.588;12.148;2023-03-19T15:42:57;14.20;99.90
11304;DHT22;5707;49.588;12.148;2023-03-19T15:45:31;14.10;99.90
11304;DHT22;5707;49.588;12.148;2023-03-19T15:48:17;14.10;99.90
11304;DHT22;5707;49.588;12.148;2023-03-19T15:50:47;14.00;99.90
11304;DHT22;5707;49.588;12.148;2023-03-19T15:53:25;14.00;99.90
11304;DHT22;5707;49.588;12.148;2023-03-19T15:55:53;13.70;99.90
11304;DHT22;5707;49.588;12.148;2023-03-19T15:58:30;13.50;99.90
11304;DHT22;5707;49.588;12.148;2023-03-19T16:00:58;13.30;99.90
11304;DHT22;5707;49.588;12.148;2023-03-19T16:03:35;13.00;99.90
11304;DHT22;5707;49.588;12.148;2023-03-19T16:06:04;12.80;99.90
11304;DHT22;5707;49.588;12.148;2023-03-19T16:08:31;12.70;99.90
11304;DHT22;5707;49.588;12.148;2023-03-19T16:13:40;12.40;99.90
11304;DHT22;5707;49.588;12.148;2023-03-19T16:18:45;11.90;99.90
11304;DHT22;5707;49.588;12.148;2023-03-19T16:23:57;11.40;99.90
11304;DHT22;5707;49.588;12.148;2023-03-19T16:26:25;11.20;99.90
11304;DHT22;5707;49.588;12.148;2023-03-19T16:31:47;10.80;99.90
11304;DHT22;5707;49.588;12.148;2023-03-19T16:34:30;10.70;99.90
11304;DHT22;5707;49.588;12.148;2023-03-19T16:36:59;10.50;99.90
11304;DHT22;5707;49.588;12.148;2023-03-19T16:42:14;10.10;99.90
11304;DHT22;5707;49.588;12.148;2023-03-19T16:44:50;9.90;99.90
11304;DHT22;5707;49.588;12.148;2023-03-19T16:47:16;9.80;99.90
11304;DHT22;5707;49.588;12.148;2023-03-19T16:49:42;9.70;99.90
11304;DHT22;5707;49.588;12.148;2023-03-19T16:52:17;9.50;99.90
11304;DHT22;5707;49.588;12.148;2023-03-19T16:54:44;9.40;99.90
11304;DHT22;5707;49.588;12.148;2023-03-19T16:57:12;9.30;99.90
11304;DHT22;5707;49.588;12.148;2023-03-19T16:59:39;9.10;99.90
11304;DHT22;5707;49.588;12.148;2023-03-19T17:02:15;8.90;99.90
11304;DHT22;5707;49.588;12.148;2023-03-19T17:04:42;8.70;99.90
11304;DHT22;5707;49.588;12.148;2023-03-19T17:07:08;8.40;99.90
11304;DHT22;5707;49.588;12.148;2023-03-19T17:09:34;8.20;99.90
11304;DHT22;5707;49.588;12.148;2023-03-19T17:12:00;8.00;99.90
11304;DHT22;5707;49.588;12.148;2023-03-19T17:14:27;7.80;99.90
11304;DHT22;5707;49.588;12.148;2023-03-19T17:16:54;7.60;99.90
11304;DHT22;5707;49.588;12.148;2023-03-19T17:19:23;7.50;99.90
11304;DHT22;5707;49.588;12.148;2023-03-19T17:21:54;7.40;99.90
11304;DHT22;5707;49.588;12.148;2023-03-19T17:24:26;7.30;99.90
11304;DHT22;5707;49.588;12.148;2023-03-19T17:26:52;7.10;99.90